createdAt,value
2023-05-01T00:01:58.807Z,100748.81
2023-05-01T00:04:27.454Z,100739.31
2023-05-01T00:06:56.280Z,100759.19
2023-05-01T00:09:24.962Z,100723.66
2023-05-01T00:11:53.699Z,100766.06
2023-05-01T00:14:22.594Z,100769.50
2023-05-01T00:16:51.616Z,100737.44
2023-05-01T00:19:20.241Z,100762.50
2023-05-01T00:21:49.457Z,100767.69
2023-05-01T00:24:18.551Z,100747.72
2023-05-01T00:26:47.380Z,100733.81
2023-05-01T00:29:16.150Z,100737.28
2023-05-01T00:31:46.385Z,100749.34
2023-05-01T00:34:15.248Z,100677.50
2023-05-01T00:36:44.283Z,100754.44
2023-05-01T00:39:13.891Z,100745.72
2023-05-01T00:41:42.657Z,100751.72
2023-05-01T00:44:11.423Z,100682.41
2023-05-01T00:46:40.365Z,100740.34
2023-05-01T00:49:09.065Z,100681.44
2023-05-01T00:51:38.080Z,100741.09
2023-05-01T00:54:07.145Z,100755.69
2023-05-01T00:56:36.005Z,100767.84
2023-05-01T00:59:05.782Z,100735.72
2023-05-01T01:01:35.424Z,100764.25
2023-05-01T01:04:04.553Z,100757.25
2023-05-01T01:06:42.854Z,100781.44
2023-05-01T01:09:38.750Z,100782.22
2023-05-01T01:12:21.742Z,100751.88
2023-05-01T01:15:04.790Z,100781.25
2023-05-01T01:17:51.735Z,100768.91
2023-05-01T01:20:47.693Z,100691.09
2023-05-01T01:23:29.027Z,100765.97
2023-05-01T01:26:14.720Z,100785.31
2023-05-01T01:28:55.558Z,100782.28
2023-05-01T01:31:51.718Z,100786.16
2023-05-01T01:34:56.417Z,100706.44
2023-05-01T01:37:55.257Z,100747.47
2023-05-01T01:40:30.480Z,100772.28
2023-05-01T01:43:08.540Z,100767.75
2023-05-01T01:45:48.017Z,100784.41
2023-05-01T01:48:27.441Z,100782.38
2023-05-01T01:51:00.000Z,100772.53
2023-05-01T01:53:32.123Z,100785.63
2023-05-01T01:56:03.941Z,100695.78
2023-05-01T01:58:36.321Z,100755.66
2023-05-01T02:01:07.113Z,100748.59
2023-05-01T02:03:38.066Z,100761.34
2023-05-01T02:06:08.626Z,100770.47
2023-05-01T02:08:39.529Z,100692.41
2023-05-01T02:11:10.545Z,100764.50
2023-05-01T02:13:41.889Z,100754.47
2023-05-01T02:16:12.364Z,100709.25
2023-05-01T02:18:42.560Z,100775.09
2023-05-01T02:21:13.282Z,100748.97
2023-05-01T02:23:42.544Z,100779.00
2023-05-01T02:26:17.919Z,100762.88
2023-05-01T02:28:46.836Z,100740.28
2023-05-01T02:31:15.726Z,100760.97
2023-05-01T02:33:44.493Z,100738.84
2023-05-01T02:36:14.205Z,100748.31
2023-05-01T02:38:44.084Z,100672.47
2023-05-01T02:41:16.284Z,100720.78
2023-05-01T02:43:48.125Z,100669.69
2023-05-01T02:46:18.548Z,100738.34
2023-05-01T02:48:50.180Z,100730.94
2023-05-01T02:51:20.824Z,100754.72
2023-05-01T02:53:50.047Z,100752.09
2023-05-01T02:56:23.704Z,100739.88
2023-05-01T02:58:52.496Z,100756.00
2023-05-01T03:01:21.692Z,100726.56
2023-05-01T03:03:50.502Z,100708.16
2023-05-01T03:06:20.296Z,100740.03
2023-05-01T03:08:49.306Z,100736.28
2023-05-01T03:11:18.105Z,100709.78
2023-05-01T03:13:48.337Z,100719.94
2023-05-01T03:16:17.968Z,100725.16
2023-05-01T03:18:49.508Z,100718.97
2023-05-01T03:21:19.002Z,100727.81
2023-05-01T03:23:47.784Z,100718.09
2023-05-01T03:26:17.049Z,100724.59
2023-05-01T03:28:45.808Z,100679.88
2023-05-01T03:31:15.151Z,100737.81
2023-05-01T03:33:44.024Z,100693.78
2023-05-01T03:36:12.708Z,100728.19
2023-05-01T03:38:41.657Z,100736.13
2023-05-01T03:41:11.001Z,100720.91
2023-05-01T03:43:58.129Z,100732.69
2023-05-01T03:46:34.923Z,100653.72
2023-05-01T03:49:04.634Z,100734.19
2023-05-01T03:51:39.566Z,100650.59
2023-05-01T03:54:08.782Z,100700.31
2023-05-01T03:56:52.504Z,100701.25
2023-05-01T03:59:22.243Z,100708.66
2023-05-01T04:01:51.407Z,100701.16
2023-05-01T04:04:20.305Z,100691.41
2023-05-01T04:06:56.488Z,100676.69
2023-05-01T04:09:25.449Z,100709.44
2023-05-01T04:11:54.270Z,100680.59
2023-05-01T04:14:23.070Z,100682.34
2023-05-01T04:16:52.003Z,100693.78
2023-05-01T04:19:20.944Z,100711.31
2023-05-01T04:21:56.302Z,100703.63
2023-05-01T04:24:24.987Z,100684.44
2023-05-01T04:26:53.722Z,100693.09
2023-05-01T04:29:22.661Z,100663.16
2023-05-01T04:31:51.470Z,100672.81
2023-05-01T04:34:21.481Z,100625.34
2023-05-01T04:36:50.418Z,100693.50
2023-05-01T04:39:19.337Z,100690.00
2023-05-01T04:41:48.121Z,100608.38
2023-05-01T04:44:17.367Z,100667.81
2023-05-01T04:46:46.854Z,100678.66
2023-05-01T04:49:15.677Z,100661.19
2023-05-01T04:51:44.264Z,100679.91
2023-05-01T04:54:16.026Z,100619.03
2023-05-01T04:56:45.357Z,100672.69
2023-05-01T04:59:14.386Z,100679.59
2023-05-01T05:01:43.198Z,100685.84
2023-05-01T05:04:12.336Z,100674.59
2023-05-01T05:06:41.252Z,100650.31
2023-05-01T05:09:18.065Z,100672.34
2023-05-01T05:11:49.029Z,100651.50
2023-05-01T05:14:22.940Z,100654.94
2023-05-01T05:16:52.481Z,100662.47
2023-05-01T05:19:21.497Z,100664.94
2023-05-01T05:21:50.240Z,100665.97
2023-05-01T05:24:19.640Z,100636.91
2023-05-01T05:26:49.867Z,100640.63
2023-05-01T05:29:18.780Z,100619.00
2023-05-01T05:31:47.996Z,100636.44
2023-05-01T05:34:19.559Z,100623.94
2023-05-01T05:36:48.165Z,100641.00
2023-05-01T05:39:19.130Z,100630.72
2023-05-01T05:41:49.921Z,100627.97
2023-05-01T05:44:21.677Z,100631.22
2023-05-01T05:46:50.476Z,100640.28
2023-05-01T05:49:28.917Z,100618.09
2023-05-01T05:51:57.695Z,100614.50
2023-05-01T05:54:26.699Z,100605.41
2023-05-01T05:56:55.616Z,100559.09
2023-05-01T05:59:27.379Z,100585.28
2023-05-01T06:01:56.103Z,100585.75
2023-05-01T06:04:25.758Z,100582.22
2023-05-01T06:06:58.464Z,100597.94
2023-05-01T06:09:27.478Z,100590.47
2023-05-01T06:11:56.339Z,100581.84
2023-05-01T06:14:25.150Z,100606.97
2023-05-01T06:16:54.007Z,100592.69
2023-05-01T06:19:22.844Z,100589.47
2023-05-01T06:21:56.590Z,100618.84
2023-05-01T06:24:25.649Z,100608.09
2023-05-01T06:26:59.654Z,100606.97
2023-05-01T06:29:30.439Z,100581.81
2023-05-01T06:31:59.132Z,100605.38
2023-05-01T06:34:28.302Z,100605.75
2023-05-01T06:36:57.886Z,100580.41
2023-05-01T06:39:27.208Z,100599.00
2023-05-01T06:41:56.445Z,100609.72
2023-05-01T06:44:33.425Z,100595.22
2023-05-01T06:47:03.629Z,100610.28
2023-05-01T06:49:32.494Z,100587.91
2023-05-01T06:52:05.219Z,100592.44
2023-05-01T06:54:34.545Z,100616.22
2023-05-01T06:57:03.359Z,100598.47
2023-05-01T06:59:32.145Z,100590.00
2023-05-01T07:02:00.975Z,100578.72
2023-05-01T07:04:29.726Z,100584.97
2023-05-01T07:06:58.588Z,100575.31
2023-05-01T07:09:27.407Z,100581.97
2023-05-01T07:11:57.706Z,100608.16
2023-05-01T07:14:26.786Z,100532.72
2023-05-01T07:16:56.200Z,100503.28
2023-05-01T07:19:25.313Z,100576.63
2023-05-01T07:21:54.680Z,100573.50
2023-05-01T07:24:23.585Z,100579.88
2023-05-01T07:26:52.589Z,100597.06
2023-05-01T07:29:21.556Z,100561.91
2023-05-01T07:31:50.496Z,100587.66
2023-05-01T07:34:20.373Z,100589.34
2023-05-01T07:36:48.999Z,100590.59
2023-05-01T07:39:18.568Z,100588.81
2023-05-01T07:41:48.227Z,100596.13
2023-05-01T07:44:17.061Z,100611.34
2023-05-01T07:46:46.651Z,100573.56
2023-05-01T07:49:15.247Z,100581.31
2023-05-01T07:51:45.605Z,100587.53
2023-05-01T07:54:16.435Z,100581.78
2023-05-01T07:56:48.585Z,100579.28
2023-05-01T07:59:18.647Z,100580.63
2023-05-01T08:01:47.950Z,100603.06
2023-05-01T08:04:17.983Z,100578.84
2023-05-01T08:06:48.227Z,100481.88
2023-05-01T08:09:17.884Z,100596.00
2023-05-01T08:11:46.888Z,100592.50
2023-05-01T08:14:18.307Z,100563.31
2023-05-01T08:16:47.219Z,100594.41
2023-05-01T08:19:16.108Z,100586.31
2023-05-01T08:21:44.809Z,100599.03
2023-05-01T08:24:13.568Z,100589.31
2023-05-01T08:26:42.657Z,100594.09
2023-05-01T08:29:11.769Z,100577.59
2023-05-01T08:31:40.669Z,100558.53
2023-05-01T08:34:09.900Z,100563.88
2023-05-01T08:36:39.354Z,100565.56
2023-05-01T08:39:08.236Z,100586.38
2023-05-01T08:41:39.198Z,100526.84
2023-05-01T08:44:11.872Z,100557.72
2023-05-01T08:47:21.022Z,100571.22
2023-05-01T08:49:53.377Z,100567.31
2023-05-01T08:52:24.145Z,100567.75
2023-05-01T08:55:00.327Z,100556.63
2023-05-01T08:57:31.644Z,100541.69
2023-05-01T09:00:01.614Z,100554.31
2023-05-01T09:02:32.264Z,100569.75
2023-05-01T09:05:04.710Z,100576.59
2023-05-01T09:07:33.403Z,100563.59
2023-05-01T09:10:02.664Z,100581.94
2023-05-01T09:12:36.164Z,100564.44
2023-05-01T09:15:05.895Z,100571.28
2023-05-01T09:17:37.707Z,100568.06
2023-05-01T09:20:08.284Z,100577.97
2023-05-01T09:22:37.685Z,100517.34
2023-05-01T09:25:09.191Z,100563.69
2023-05-01T09:27:39.270Z,100577.78
2023-05-01T09:30:09.888Z,100562.56
2023-05-01T09:35:15.433Z,100554.00
2023-05-01T09:37:50.447Z,100558.66
2023-05-01T09:40:19.301Z,100589.94
2023-05-01T09:42:53.502Z,100567.13
2023-05-01T09:45:24.285Z,100548.88
2023-05-01T09:47:53.269Z,100569.00
2023-05-01T09:50:35.937Z,100511.75
2023-05-01T09:53:07.365Z,100580.69
2023-05-01T09:55:37.267Z,100573.66
2023-05-01T09:58:06.767Z,100585.44
2023-05-01T10:00:50.420Z,100574.69
2023-05-01T10:03:22.922Z,100584.78
2023-05-01T10:05:51.832Z,100580.78
2023-05-01T10:08:20.856Z,100576.03
2023-05-01T10:11:09.081Z,100591.03
2023-05-01T10:13:38.654Z,100584.00
2023-05-01T10:16:09.462Z,100592.16
2023-05-01T10:18:38.842Z,100601.50
2023-05-01T10:21:11.075Z,100593.41
2023-05-01T10:23:39.888Z,100620.38
2023-05-01T10:26:09.979Z,100604.31
2023-05-01T10:28:39.393Z,100601.19
2023-05-01T10:31:14.048Z,100592.19
2023-05-01T10:33:44.885Z,100609.78
2023-05-01T10:36:26.227Z,100590.25
2023-05-01T10:38:55.790Z,100540.25
2023-05-01T10:42:01.056Z,100614.22
2023-05-01T10:44:30.537Z,100599.94
2023-05-01T10:47:00.004Z,100629.38
2023-05-01T10:50:11.087Z,100618.19
2023-05-01T10:53:14.107Z,100615.44
2023-05-01T10:55:45.459Z,100604.59
2023-05-01T10:58:16.057Z,100624.19
2023-05-01T11:00:44.686Z,100568.53
2023-05-01T11:03:24.246Z,100654.19
2023-05-01T11:06:06.284Z,100645.81
2023-05-01T11:08:40.530Z,100635.34
2023-05-01T11:11:22.188Z,100644.16
2023-05-01T11:14:00.740Z,100637.91
2023-05-01T11:16:39.086Z,100645.59
2023-05-01T11:19:10.837Z,100635.00
2023-05-01T11:21:41.518Z,100632.41
2023-05-01T11:24:11.128Z,100623.44
2023-05-01T11:26:41.810Z,100630.91
2023-05-01T11:29:12.388Z,100633.34
2023-05-01T11:31:41.156Z,100648.00
2023-05-01T11:34:10.632Z,100617.00
2023-05-01T11:36:50.519Z,100652.72
2023-05-01T11:39:21.148Z,100637.56
2023-05-01T11:41:50.226Z,100572.97
2023-05-01T11:44:19.786Z,100620.94
2023-05-01T11:47:02.206Z,100612.34
2023-05-01T11:49:31.427Z,100638.66
2023-05-01T11:52:00.940Z,100646.22
2023-05-01T11:54:30.598Z,100634.44
2023-05-01T11:57:02.765Z,100651.59
2023-05-01T11:59:31.798Z,100649.53
2023-05-01T12:02:00.937Z,100630.44
2023-05-01T12:04:32.245Z,100665.81
2023-05-01T12:07:01.811Z,100655.56
2023-05-01T12:09:31.309Z,100666.91
2023-05-01T12:12:03.041Z,100669.78
2023-05-01T12:14:32.461Z,100656.25
2023-05-01T12:17:03.285Z,100630.97
2023-05-01T12:19:33.177Z,100676.59
2023-05-01T12:22:09.931Z,100670.84
2023-05-01T12:24:39.259Z,100672.47
2023-05-01T12:27:10.043Z,100677.78
2023-05-01T12:29:42.791Z,100657.16
2023-05-01T12:32:12.598Z,100670.03
2023-05-01T12:34:43.234Z,100677.09
2023-05-01T12:37:12.756Z,100664.63
2023-05-01T12:39:45.507Z,100699.25
2023-05-01T12:42:16.007Z,100697.28
2023-05-01T12:44:45.583Z,100691.66
2023-05-01T12:47:15.452Z,100661.50
2023-05-01T12:49:44.729Z,100704.28
2023-05-01T12:52:14.260Z,100669.41
2023-05-01T12:54:45.351Z,100619.09
2023-05-01T12:57:16.896Z,100690.06
2023-05-01T12:59:48.237Z,100628.56
2023-05-01T13:02:19.600Z,100711.56
2023-05-01T13:04:52.555Z,100689.06
2023-05-01T13:07:22.570Z,100683.00
2023-05-01T13:09:55.774Z,100702.16
2023-05-01T13:12:27.758Z,100700.13
2023-05-01T13:14:58.449Z,100699.16
2023-05-01T13:17:34.623Z,100721.19
2023-05-01T13:20:06.872Z,100700.22
2023-05-01T13:22:38.217Z,100713.78
2023-05-01T13:25:17.298Z,100729.88
2023-05-01T13:27:54.675Z,100658.13
2023-05-01T13:30:33.776Z,100738.16
2023-05-01T13:33:06.645Z,100739.06
2023-05-01T13:35:37.010Z,100743.34
2023-05-01T13:38:14.019Z,100725.38
2023-05-01T13:40:43.571Z,100757.97
2023-05-01T13:43:18.603Z,100742.88
2023-05-01T13:45:48.729Z,100680.44
2023-05-01T13:48:19.821Z,100733.22
2023-05-01T13:50:49.191Z,100758.53
2023-05-01T13:53:18.281Z,100763.94
2023-05-01T13:55:47.496Z,100753.69
2023-05-01T13:58:16.479Z,100737.78
2023-05-01T14:00:47.061Z,100769.88
2023-05-01T14:03:17.324Z,100695.47
2023-05-01T14:05:48.394Z,100757.00
2023-05-01T14:08:22.185Z,100765.38
2023-05-01T14:10:51.193Z,100774.72
2023-05-01T14:13:23.310Z,100768.28
2023-05-01T14:15:53.091Z,100798.41
2023-05-01T14:18:22.930Z,100784.19
2023-05-01T14:20:52.291Z,100821.00
2023-05-01T14:23:25.572Z,100809.09
2023-05-01T14:25:55.812Z,100796.56
2023-05-01T14:28:25.170Z,100798.59
2023-05-01T14:30:55.905Z,100798.06
2023-05-01T14:33:27.172Z,100824.25
2023-05-01T14:35:56.616Z,100829.03
2023-05-01T14:38:28.679Z,100832.19
2023-05-01T14:40:58.550Z,100812.88
2023-05-01T14:43:29.061Z,100832.72
2023-05-01T14:45:58.249Z,100851.44
2023-05-01T14:48:36.310Z,100844.22
2023-05-01T14:51:14.098Z,100860.88
2023-05-01T14:53:43.862Z,100856.91
2023-05-01T14:56:13.917Z,100787.53
2023-05-01T14:58:43.251Z,100880.38
2023-05-01T15:01:12.740Z,100790.78
2023-05-01T15:03:42.607Z,100875.63
2023-05-01T15:06:12.490Z,100864.75
2023-05-01T15:08:41.665Z,100871.94
2023-05-01T15:11:10.571Z,100857.53
2023-05-01T15:13:40.968Z,100885.41
2023-05-01T15:16:14.734Z,100875.34
2023-05-01T15:18:44.035Z,100907.59
2023-05-01T15:21:14.161Z,100902.63
2023-05-01T15:23:45.936Z,100904.50
2023-05-01T15:26:15.208Z,100881.44
2023-05-01T15:28:44.924Z,100909.28
2023-05-01T15:31:14.200Z,100877.47
2023-05-01T15:33:43.703Z,100826.63
2023-05-01T15:36:13.248Z,100909.94
2023-05-01T15:38:42.572Z,100903.13
2023-05-01T15:41:11.930Z,100916.41
2023-05-01T15:43:40.969Z,100926.84
2023-05-01T15:46:09.933Z,100911.44
2023-05-01T15:48:39.689Z,100923.84
2023-05-01T15:51:09.032Z,100944.72
2023-05-01T15:53:38.732Z,100947.66
2023-05-01T15:56:11.108Z,100953.31
2023-05-01T15:58:41.388Z,100970.06
2023-05-01T16:01:12.843Z,100895.13
2023-05-01T16:03:47.153Z,100857.34
2023-05-01T16:06:17.461Z,100963.09
2023-05-01T16:08:46.639Z,100996.22
2023-05-01T16:11:16.510Z,100994.75
2023-05-01T16:13:48.437Z,101010.56
2023-05-01T16:16:24.536Z,100984.69
2023-05-01T16:18:58.947Z,101002.19
2023-05-01T16:21:31.147Z,100997.13
2023-05-01T16:24:03.305Z,101032.84
2023-05-01T16:26:32.674Z,100935.81
2023-05-01T16:29:04.096Z,101037.28
2023-05-01T16:31:42.377Z,101013.13
2023-05-01T16:34:15.928Z,101033.06
2023-05-01T16:36:46.384Z,101042.75
2023-05-01T16:39:20.892Z,101025.44
2023-05-01T16:41:52.040Z,101042.88
2023-05-01T16:44:23.672Z,101087.28
2023-05-01T16:46:58.275Z,101065.53
2023-05-01T16:49:28.618Z,101054.31
2023-05-01T16:51:59.455Z,101039.66
2023-05-01T16:54:37.665Z,101044.00
2023-05-01T16:57:07.645Z,100976.34
2023-05-01T16:59:39.466Z,101077.91
2023-05-01T17:02:08.853Z,101075.28
2023-05-01T17:04:38.178Z,101085.75
2023-05-01T17:07:06.890Z,101054.47
2023-05-01T17:09:36.187Z,101081.38
2023-05-01T17:12:06.348Z,101051.88
2023-05-01T17:14:35.120Z,101095.31
2023-05-01T17:17:09.076Z,101070.19
2023-05-01T17:19:42.508Z,101074.53
2023-05-01T17:22:12.425Z,101054.56
2023-05-01T17:24:42.456Z,101014.66
2023-05-01T17:27:11.947Z,101003.44
2023-05-01T17:29:42.421Z,101068.56
2023-05-01T17:32:13.159Z,101101.56
2023-05-01T17:34:44.924Z,101072.91
2023-05-01T17:37:14.156Z,101006.06
2023-05-01T17:39:43.354Z,101084.22
2023-05-01T17:42:12.086Z,101061.66
2023-05-01T17:44:41.295Z,101092.06
2023-05-01T17:47:10.938Z,101011.34
2023-05-01T17:49:39.993Z,101094.69
2023-05-01T17:52:09.814Z,101106.00
2023-05-01T17:54:39.224Z,101078.25
2023-05-01T17:57:08.855Z,101114.72
2023-05-01T17:59:37.949Z,101103.47
2023-05-01T18:02:07.836Z,101062.66
2023-05-01T18:04:39.120Z,101040.06
2023-05-01T18:07:08.118Z,101103.47
2023-05-01T18:09:37.179Z,101122.63
2023-05-01T18:12:06.485Z,101096.53
2023-05-01T18:14:35.546Z,101109.56
2023-05-01T18:17:05.010Z,101092.19
2023-05-01T18:19:34.295Z,101123.47
2023-05-01T18:22:05.000Z,101134.78
2023-05-01T18:24:34.443Z,101124.34
2023-05-01T18:27:03.605Z,101112.19
2023-05-01T18:29:33.218Z,101113.03
2023-05-01T18:32:02.440Z,101051.31
2023-05-01T18:34:31.538Z,101119.94
2023-05-01T18:37:00.225Z,101074.72
2023-05-01T18:39:29.322Z,101119.91
2023-05-01T18:41:57.911Z,101149.50
2023-05-01T18:44:27.542Z,101101.66
2023-05-01T18:46:56.949Z,101129.47
2023-05-01T18:49:25.880Z,101125.06
2023-05-01T18:51:55.083Z,101125.03
2023-05-01T18:54:24.008Z,101145.78
2023-05-01T18:56:52.772Z,101166.66
2023-05-01T18:59:22.807Z,101143.97
2023-05-01T19:01:52.160Z,101137.84
2023-05-01T19:04:21.008Z,101132.56
2023-05-01T19:06:50.245Z,101060.31
2023-05-01T19:09:19.538Z,101141.16
2023-05-01T19:11:48.424Z,101161.13
2023-05-01T19:14:17.080Z,101160.19
2023-05-01T19:16:45.848Z,101159.25
2023-05-01T19:19:14.637Z,101131.38
2023-05-01T19:21:43.454Z,101175.72
2023-05-01T19:24:12.637Z,101167.91
2023-05-01T19:26:41.395Z,101086.94
2023-05-01T19:29:10.289Z,101142.69
2023-05-01T19:31:39.453Z,101146.97
2023-05-01T19:34:08.575Z,101159.13
2023-05-01T19:36:37.337Z,101072.03
2023-05-01T19:39:08.560Z,101171.28
2023-05-01T19:41:37.801Z,101159.84
2023-05-01T19:44:06.646Z,101177.25
2023-05-01T19:46:35.619Z,101150.25
2023-05-01T19:49:05.051Z,101181.53
2023-05-01T19:51:33.867Z,101155.28
2023-05-01T19:54:05.202Z,101081.31
2023-05-01T19:56:33.800Z,101148.28
2023-05-01T19:59:02.332Z,101170.03
2023-05-01T20:01:31.931Z,101137.78
2023-05-01T20:04:03.343Z,101183.88
2023-05-01T20:06:34.678Z,101190.84
2023-05-01T20:09:03.839Z,101192.59
2023-05-01T20:11:32.926Z,101177.75
2023-05-01T20:14:02.762Z,101165.50
2023-05-01T20:16:32.100Z,101161.03
2023-05-01T20:19:01.030Z,101201.84
2023-05-01T20:21:29.880Z,101180.06
2023-05-01T20:23:58.917Z,101206.06
2023-05-01T20:26:28.267Z,101165.09
2023-05-01T20:28:57.382Z,101174.63
2023-05-01T20:31:26.103Z,101193.81
2023-05-01T20:33:54.700Z,101175.50
2023-05-01T20:36:25.340Z,101161.47
2023-05-01T20:38:54.780Z,101108.22
2023-05-01T20:41:24.577Z,101193.56
2023-05-01T20:43:53.341Z,101198.72
2023-05-01T20:46:23.577Z,101168.22
2023-05-01T20:48:52.769Z,101214.38
2023-05-01T20:51:21.659Z,101176.00
2023-05-01T20:53:51.070Z,101177.81
2023-05-01T20:56:20.200Z,101187.44
2023-05-01T20:58:49.067Z,101110.63
2023-05-01T21:01:17.857Z,101185.59
2023-05-01T21:03:49.512Z,101176.81
2023-05-01T21:06:18.356Z,101176.81
2023-05-01T21:08:47.982Z,101168.19
2023-05-01T21:11:17.289Z,101160.44
2023-05-01T21:13:48.153Z,101182.25
2023-05-01T21:16:19.652Z,101183.09
2023-05-01T21:18:49.415Z,101176.97
2023-05-01T21:21:18.364Z,101158.50
2023-05-01T21:23:49.744Z,101185.44
2023-05-01T21:26:20.477Z,101153.25
2023-05-01T21:28:49.700Z,101148.03
2023-05-01T21:31:18.383Z,101209.03
2023-05-01T21:33:49.358Z,101186.44
2023-05-01T21:36:18.973Z,101174.22
2023-05-01T21:38:48.032Z,101152.31
2023-05-01T21:41:17.068Z,101177.50
2023-05-01T21:43:45.930Z,101194.06
2023-05-01T21:46:19.155Z,101194.88
2023-05-01T21:48:55.034Z,101180.84
2023-05-01T21:51:32.938Z,101202.44
2023-05-01T21:54:02.900Z,101213.72
2023-05-01T21:56:32.080Z,101212.75
2023-05-01T21:59:06.677Z,101197.03
2023-05-01T22:01:35.559Z,101193.47
2023-05-01T22:04:04.571Z,101196.94
2023-05-01T22:06:33.880Z,101202.97
2023-05-01T22:09:02.437Z,101195.09
2023-05-01T22:11:33.982Z,101209.88
2023-05-01T22:14:03.005Z,101215.03
2023-05-01T22:16:31.746Z,101213.19
2023-05-01T22:19:01.209Z,101227.91
2023-05-01T22:21:32.129Z,101234.00
2023-05-01T22:24:00.876Z,101222.59
2023-05-01T22:26:29.640Z,101149.06
2023-05-01T22:28:58.362Z,101237.16
2023-05-01T22:31:27.153Z,101236.19
2023-05-01T22:33:56.125Z,101244.81
2023-05-01T22:36:25.269Z,101253.50
2023-05-01T22:38:54.047Z,101235.19
2023-05-01T22:41:22.929Z,101242.94
2023-05-01T22:43:53.929Z,101224.78
2023-05-01T22:46:23.742Z,101236.84
2023-05-01T22:48:52.637Z,101228.94
2023-05-01T22:51:21.487Z,101239.38
2023-05-01T22:53:50.511Z,101174.72
2023-05-01T22:56:19.369Z,101240.22
2023-05-01T22:58:48.867Z,101103.25
2023-05-01T23:01:17.695Z,101264.66
2023-05-01T23:03:46.755Z,101261.09
2023-05-01T23:06:15.885Z,101216.38
2023-05-01T23:08:44.668Z,101292.19
2023-05-01T23:11:17.302Z,101276.56
2023-05-01T23:13:49.146Z,101264.28
2023-05-01T23:16:18.887Z,101235.31
2023-05-01T23:18:47.862Z,101250.16
2023-05-01T23:21:19.051Z,101271.03
2023-05-01T23:23:48.494Z,101234.28
2023-05-01T23:26:26.153Z,101272.53
2023-05-01T23:28:55.241Z,101289.06
2023-05-01T23:31:28.305Z,101297.00
2023-05-01T23:33:57.766Z,101265.41
2023-05-01T23:36:27.068Z,101279.25
2023-05-01T23:38:55.962Z,101294.25
2023-05-01T23:41:25.731Z,101286.00
2023-05-01T23:43:54.610Z,101303.91
2023-05-01T23:46:23.516Z,101282.63
2023-05-01T23:48:53.024Z,101281.75
2023-05-01T23:51:22.008Z,101293.81
2023-05-01T23:53:50.711Z,101320.66
2023-05-01T23:56:19.628Z,101291.78
2023-05-01T23:58:48.425Z,101279.59
